Terminal Aerodrome Forecast
Issued by NWS Upton, NY

Home | Current Version | Previous Version | Text Only | Print | Product List | Glossary On
Versions: 1 2 3 4 5 6 7 8 9 10 11 12 13 14 15 16 17 18 19 20 21 22 23 24 25
000
FTUS41 KOKX 192000 AAA
TAFISP
TAF AMD
KISP 192033Z 1921/2018 33014G20KT P6SM BKN035
     FM192200 32008KT P6SM BKN035
     FM200700 36005KT P6SM BKN025
     FM201500 02007KT P6SM BKN025 BKN040=

USA.gov is the U.S. government's official web portal to all federal, state and local government web resources and services.